sensor_id;sensor_type;location;lat;lon;timestamp;temperature;humidity
15072;DHT22;7635;56.696;13.002;2022-10-16T00:02:11;12.70;99.90
15072;DHT22;7635;56.696;13.002;2022-10-16T00:04:37;12.70;99.90
15072;DHT22;7635;56.696;13.002;2022-10-16T00:07:04;12.70;99.90
15072;DHT22;7635;56.696;13.002;2022-10-16T00:09:31;12.70;99.90
15072;DHT22;7635;56.696;13.002;2022-10-16T00:11:58;12.70;99.90
15072;DHT22;7635;56.696;13.002;2022-10-16T00:14:26;12.70;99.90
15072;DHT22;7635;56.696;13.002;2022-10-16T00:16:52;12.70;99.90
15072;DHT22;7635;56.696;13.002;2022-10-16T00:19:19;12.80;99.90
15072;DHT22;7635;56.696;13.002;2022-10-16T00:21:46;12.80;99.90
15072;DHT22;7635;56.696;13.002;2022-10-16T00:24:13;12.80;99.90
15072;DHT22;7635;56.696;13.002;2022-10-16T00:26:40;12.80;99.90
15072;DHT22;7635;56.696;13.002;2022-10-16T00:29:07;12.80;99.90
15072;DHT22;7635;56.696;13.002;2022-10-16T00:31:36;12.80;99.90
15072;DHT22;7635;56.696;13.002;2022-10-16T00:34:02;12.80;99.90
15072;DHT22;7635;56.696;13.002;2022-10-16T00:36:29;12.80;99.90
15072;DHT22;7635;56.696;13.002;2022-10-16T00:38:57;12.80;99.90
15072;DHT22;7635;56.696;13.002;2022-10-16T00:41:27;12.80;99.90
15072;DHT22;7635;56.696;13.002;2022-10-16T00:43:55;12.80;99.90
15072;DHT22;7635;56.696;13.002;2022-10-16T00:46:25;12.80;99.90
15072;DHT22;7635;56.696;13.002;2022-10-16T00:48:57;12.90;99.90
15072;DHT22;7635;56.696;13.002;2022-10-16T00:51:30;12.90;99.90
15072;DHT22;7635;56.696;13.002;2022-10-16T00:53:57;12.90;99.90
15072;DHT22;7635;56.696;13.002;2022-10-16T00:56:24;12.90;99.90
15072;DHT22;7635;56.696;13.002;2022-10-16T00:58:51;12.90;99.90
15072;DHT22;7635;56.696;13.002;2022-10-16T01:01:18;12.90;99.90
15072;DHT22;7635;56.696;13.002;2022-10-16T01:03:45;12.90;99.90
15072;DHT22;7635;56.696;13.002;2022-10-16T01:06:23;12.90;99.90
15072;DHT22;7635;56.696;13.002;2022-10-16T01:09:13;12.90;99.90
15072;DHT22;7635;56.696;13.002;2022-10-16T01:11:48;12.90;99.90
15072;DHT22;7635;56.696;13.002;2022-10-16T01:14:22;12.90;99.90
15072;DHT22;7635;56.696;13.002;2022-10-16T01:16:55;12.90;99.90
15072;DHT22;7635;56.696;13.002;2022-10-16T01:22:16;12.90;99.90
15072;DHT22;7635;56.696;13.002;2022-10-16T01:24:48;12.90;99.90
15072;DHT22;7635;56.696;13.002;2022-10-16T01:27:18;12.90;99.90
15072;DHT22;7635;56.696;13.002;2022-10-16T01:29:52;12.90;99.90
15072;DHT22;7635;56.696;13.002;2022-10-16T01:32:26;12.90;99.90
15072;DHT22;7635;56.696;13.002;2022-10-16T01:34:58;12.90;99.90
15072;DHT22;7635;56.696;13.002;2022-10-16T01:37:33;12.90;99.90
15072;DHT22;7635;56.696;13.002;2022-10-16T01:40:05;12.90;99.90
15072;DHT22;7635;56.696;13.002;2022-10-16T01:42:37;12.90;99.90
15072;DHT22;7635;56.696;13.002;2022-10-16T01:45:07;12.90;99.90
15072;DHT22;7635;56.696;13.002;2022-10-16T01:47:37;12.90;99.90
15072;DHT22;7635;56.696;13.002;2022-10-16T01:50:07;12.90;99.90
15072;DHT22;7635;56.696;13.002;2022-10-16T01:52:37;12.90;99.90
15072;DHT22;7635;56.696;13.002;2022-10-16T01:55:07;12.90;99.90
15072;DHT22;7635;56.696;13.002;2022-10-16T01:57:39;12.90;99.90
15072;DHT22;7635;56.696;13.002;2022-10-16T02:00:11;12.90;99.90
15072;DHT22;7635;56.696;13.002;2022-10-16T02:02:40;12.90;99.90
15072;DHT22;7635;56.696;13.002;2022-10-16T02:05:13;12.90;99.90
15072;DHT22;7635;56.696;13.002;2022-10-16T02:07:41;12.90;99.90
15072;DHT22;7635;56.696;13.002;2022-10-16T02:10:09;12.90;99.90
15072;DHT22;7635;56.696;13.002;2022-10-16T02:12:39;12.90;99.90
15072;DHT22;7635;56.696;13.002;2022-10-16T02:15:08;12.90;99.90
15072;DHT22;7635;56.696;13.002;2022-10-16T02:17:35;12.90;99.90
15072;DHT22;7635;56.696;13.002;2022-10-16T02:20:04;12.90;99.90
15072;DHT22;7635;56.696;13.002;2022-10-16T02:22:34;12.90;99.90
15072;DHT22;7635;56.696;13.002;2022-10-16T02:25:06;12.90;99.90
15072;DHT22;7635;56.696;13.002;2022-10-16T02:27:40;12.80;99.90
15072;DHT22;7635;56.696;13.002;2022-10-16T02:30:11;12.80;99.90
15072;DHT22;7635;56.696;13.002;2022-10-16T02:32:42;12.80;99.90
15072;DHT22;7635;56.696;13.002;2022-10-16T02:35:10;12.80;99.90
15072;DHT22;7635;56.696;13.002;2022-10-16T02:37:37;12.80;99.90
15072;DHT22;7635;56.696;13.002;2022-10-16T02:40:06;12.80;99.90
15072;DHT22;7635;56.696;13.002;2022-10-16T02:42:34;12.80;99.90
15072;DHT22;7635;56.696;13.002;2022-10-16T02:45:04;12.70;99.90
15072;DHT22;7635;56.696;13.002;2022-10-16T02:47:31;12.80;99.90
15072;DHT22;7635;56.696;13.002;2022-10-16T02:49:58;12.70;99.90
15072;DHT22;7635;56.696;13.002;2022-10-16T02:52:25;12.70;99.90
15072;DHT22;7635;56.696;13.002;2022-10-16T02:54:51;12.70;99.90
15072;DHT22;7635;56.696;13.002;2022-10-16T02:57:18;12.70;99.90
15072;DHT22;7635;56.696;13.002;2022-10-16T02:59:45;12.70;99.90
15072;DHT22;7635;56.696;13.002;2022-10-16T03:02:13;12.70;99.90
15072;DHT22;7635;56.696;13.002;2022-10-16T03:04:40;12.70;99.90
15072;DHT22;7635;56.696;13.002;2022-10-16T03:07:07;12.60;99.90
15072;DHT22;7635;56.696;13.002;2022-10-16T03:09:33;12.60;99.90
15072;DHT22;7635;56.696;13.002;2022-10-16T03:12:00;12.60;99.90
15072;DHT22;7635;56.696;13.002;2022-10-16T03:14:27;12.60;99.90
15072;DHT22;7635;56.696;13.002;2022-10-16T03:16:54;12.60;99.90
15072;DHT22;7635;56.696;13.002;2022-10-16T03:19:22;12.60;99.90
15072;DHT22;7635;56.696;13.002;2022-10-16T03:21:49;12.60;99.90
15072;DHT22;7635;56.696;13.002;2022-10-16T03:24:16;12.50;99.90
15072;DHT22;7635;56.696;13.002;2022-10-16T03:26:42;12.50;99.90
15072;DHT22;7635;56.696;13.002;2022-10-16T03:29:09;12.50;99.90
15072;DHT22;7635;56.696;13.002;2022-10-16T03:31:36;12.50;99.90
15072;DHT22;7635;56.696;13.002;2022-10-16T03:34:02;12.40;99.90
15072;DHT22;7635;56.696;13.002;2022-10-16T03:36:31;12.40;99.90
15072;DHT22;7635;56.696;13.002;2022-10-16T03:38:57;12.30;99.90
15072;DHT22;7635;56.696;13.002;2022-10-16T03:41:24;12.30;99.90
15072;DHT22;7635;56.696;13.002;2022-10-16T03:43:51;12.20;99.90
15072;DHT22;7635;56.696;13.002;2022-10-16T03:46:17;12.20;99.90
15072;DHT22;7635;56.696;13.002;2022-10-16T03:48:44;12.20;99.90
15072;DHT22;7635;56.696;13.002;2022-10-16T03:51:11;12.20;99.90
15072;DHT22;7635;56.696;13.002;2022-10-16T03:53:39;12.10;99.90
15072;DHT22;7635;56.696;13.002;2022-10-16T03:56:06;12.10;99.90
15072;DHT22;7635;56.696;13.002;2022-10-16T03:58:33;12.10;99.90
15072;DHT22;7635;56.696;13.002;2022-10-16T04:01:00;12.10;99.90
15072;DHT22;7635;56.696;13.002;2022-10-16T04:03:26;12.10;99.90
15072;DHT22;7635;56.696;13.002;2022-10-16T04:05:53;12.10;99.90
15072;DHT22;7635;56.696;13.002;2022-10-16T04:08:20;12.10;99.90
15072;DHT22;7635;56.696;13.002;2022-10-16T04:10:48;12.10;99.90
15072;DHT22;7635;56.696;13.002;2022-10-16T04:13:15;12.10;99.90
15072;DHT22;7635;56.696;13.002;2022-10-16T04:15:42;12.10;99.90
15072;DHT22;7635;56.696;13.002;2022-10-16T04:18:10;12.10;99.90
15072;DHT22;7635;56.696;13.002;2022-10-16T04:20:37;12.20;99.90
15072;DHT22;7635;56.696;13.002;2022-10-16T04:23:04;12.20;99.90
15072;DHT22;7635;56.696;13.002;2022-10-16T04:25:31;12.20;99.90
15072;DHT22;7635;56.696;13.002;2022-10-16T04:27:59;12.20;99.90
15072;DHT22;7635;56.696;13.002;2022-10-16T04:30:26;12.20;99.90
15072;DHT22;7635;56.696;13.002;2022-10-16T04:32:53;12.20;99.90
15072;DHT22;7635;56.696;13.002;2022-10-16T04:35:21;12.20;99.90
15072;DHT22;7635;56.696;13.002;2022-10-16T04:37:47;12.20;99.90
15072;DHT22;7635;56.696;13.002;2022-10-16T04:40:16;12.20;99.90
15072;DHT22;7635;56.696;13.002;2022-10-16T04:42:42;12.20;99.90
15072;DHT22;7635;56.696;13.002;2022-10-16T04:45:11;12.20;99.90
15072;DHT22;7635;56.696;13.002;2022-10-16T04:47:37;12.20;99.90
15072;DHT22;7635;56.696;13.002;2022-10-16T04:50:05;12.30;99.90
15072;DHT22;7635;56.696;13.002;2022-10-16T04:52:32;12.20;99.90
15072;DHT22;7635;56.696;13.002;2022-10-16T04:54:59;12.30;99.90
15072;DHT22;7635;56.696;13.002;2022-10-16T04:57:28;12.30;99.90
15072;DHT22;7635;56.696;13.002;2022-10-16T04:59:55;12.30;99.90
15072;DHT22;7635;56.696;13.002;2022-10-16T05:02:24;12.30;99.90
15072;DHT22;7635;56.696;13.002;2022-10-16T05:04:51;12.30;99.90
15072;DHT22;7635;56.696;13.002;2022-10-16T05:07:18;12.30;99.90
15072;DHT22;7635;56.696;13.002;2022-10-16T05:09:45;12.40;99.90
15072;DHT22;7635;56.696;13.002;2022-10-16T05:12:11;12.40;99.90
15072;DHT22;7635;56.696;13.002;2022-10-16T05:14:38;12.40;99.90
15072;DHT22;7635;56.696;13.002;2022-10-16T05:17:05;12.40;99.90
15072;DHT22;7635;56.696;13.002;2022-10-16T05:19:33;12.40;99.90
15072;DHT22;7635;56.696;13.002;2022-10-16T05:22:00;12.50;99.90
15072;DHT22;7635;56.696;13.002;2022-10-16T05:24:27;12.40;99.90
15072;DHT22;7635;56.696;13.002;2022-10-16T05:26:53;12.50;99.90
15072;DHT22;7635;56.696;13.002;2022-10-16T05:29:20;12.50;99.90
15072;DHT22;7635;56.696;13.002;2022-10-16T05:31:50;12.50;99.90
15072;DHT22;7635;56.696;13.002;2022-10-16T05:34:17;12.40;99.90
15072;DHT22;7635;56.696;13.002;2022-10-16T05:36:45;12.40;99.90
15072;DHT22;7635;56.696;13.002;2022-10-16T05:39:13;12.40;99.90
15072;DHT22;7635;56.696;13.002;2022-10-16T05:41:40;12.30;99.90
15072;DHT22;7635;56.696;13.002;2022-10-16T05:44:07;12.30;99.90
15072;DHT22;7635;56.696;13.002;2022-10-16T05:46:33;12.30;99.90
15072;DHT22;7635;56.696;13.002;2022-10-16T05:49:00;12.30;99.90
15072;DHT22;7635;56.696;13.002;2022-10-16T05:51:27;12.30;99.90
15072;DHT22;7635;56.696;13.002;2022-10-16T05:53:55;12.30;99.90
15072;DHT22;7635;56.696;13.002;2022-10-16T05:56:22;12.30;99.90
15072;DHT22;7635;56.696;13.002;2022-10-16T05:58:49;12.30;99.90
15072;DHT22;7635;56.696;13.002;2022-10-16T06:01:17;12.30;99.90
15072;DHT22;7635;56.696;13.002;2022-10-16T06:03:44;12.30;99.90
15072;DHT22;7635;56.696;13.002;2022-10-16T06:06:12;12.30;99.90
15072;DHT22;7635;56.696;13.002;2022-10-16T06:08:40;12.30;99.90
15072;DHT22;7635;56.696;13.002;2022-10-16T06:11:10;12.30;99.90
15072;DHT22;7635;56.696;13.002;2022-10-16T06:13:37;12.30;99.90
15072;DHT22;7635;56.696;13.002;2022-10-16T06:16:08;12.30;99.90
15072;DHT22;7635;56.696;13.002;2022-10-16T06:18:34;12.30;99.90
15072;DHT22;7635;56.696;13.002;2022-10-16T06:21:07;12.40;99.90
15072;DHT22;7635;56.696;13.002;2022-10-16T06:23:34;12.30;99.90
15072;DHT22;7635;56.696;13.002;2022-10-16T06:26:05;12.40;99.90
15072;DHT22;7635;56.696;13.002;2022-10-16T06:28:33;12.40;99.90
15072;DHT22;7635;56.696;13.002;2022-10-16T06:31:00;12.40;99.90
15072;DHT22;7635;56.696;13.002;2022-10-16T06:33:27;12.40;99.90
15072;DHT22;7635;56.696;13.002;2022-10-16T06:35:59;12.40;99.90
15072;DHT22;7635;56.696;13.002;2022-10-16T06:38:26;12.40;99.90
15072;DHT22;7635;56.696;13.002;2022-10-16T06:40:53;12.40;99.90
15072;DHT22;7635;56.696;13.002;2022-10-16T06:43:20;12.40;99.90
15072;DHT22;7635;56.696;13.002;2022-10-16T06:45:51;12.40;99.90
15072;DHT22;7635;56.696;13.002;2022-10-16T06:48:18;12.50;99.90
15072;DHT22;7635;56.696;13.002;2022-10-16T06:50:55;12.50;99.90
15072;DHT22;7635;56.696;13.002;2022-10-16T06:53:22;12.50;99.90
15072;DHT22;7635;56.696;13.002;2022-10-16T06:55:49;12.60;99.90
15072;DHT22;7635;56.696;13.002;2022-10-16T06:58:16;12.60;99.90
15072;DHT22;7635;56.696;13.002;2022-10-16T07:00:43;12.60;99.90
15072;DHT22;7635;56.696;13.002;2022-10-16T07:03:11;12.50;99.90
15072;DHT22;7635;56.696;13.002;2022-10-16T07:05:38;12.50;99.90
15072;DHT22;7635;56.696;13.002;2022-10-16T07:08:05;12.60;99.90
15072;DHT22;7635;56.696;13.002;2022-10-16T07:10:31;12.60;99.90
15072;DHT22;7635;56.696;13.002;2022-10-16T07:12:58;12.60;99.90
15072;DHT22;7635;56.696;13.002;2022-10-16T07:15:26;12.60;99.90
15072;DHT22;7635;56.696;13.002;2022-10-16T07:17:53;12.60;99.90
15072;DHT22;7635;56.696;13.002;2022-10-16T07:20:21;12.70;99.90
15072;DHT22;7635;56.696;13.002;2022-10-16T07:22:48;12.70;99.90
15072;DHT22;7635;56.696;13.002;2022-10-16T07:25:14;12.70;99.90
15072;DHT22;7635;56.696;13.002;2022-10-16T07:27:41;12.70;99.90
15072;DHT22;7635;56.696;13.002;2022-10-16T07:30:09;12.70;99.90
15072;DHT22;7635;56.696;13.002;2022-10-16T07:32:35;12.80;99.90
15072;DHT22;7635;56.696;13.002;2022-10-16T07:35:03;12.80;99.90
15072;DHT22;7635;56.696;13.002;2022-10-16T07:37:31;12.80;99.90
15072;DHT22;7635;56.696;13.002;2022-10-16T07:39:58;12.80;99.90
15072;DHT22;7635;56.696;13.002;2022-10-16T07:42:25;12.90;99.90
15072;DHT22;7635;56.696;13.002;2022-10-16T07:44:51;13.00;99.90
15072;DHT22;7635;56.696;13.002;2022-10-16T07:47:18;13.10;99.90
15072;DHT22;7635;56.696;13.002;2022-10-16T07:49:46;13.20;99.90
15072;DHT22;7635;56.696;13.002;2022-10-16T07:52:12;13.20;99.90
15072;DHT22;7635;56.696;13.002;2022-10-16T07:54:40;13.30;99.90
15072;DHT22;7635;56.696;13.002;2022-10-16T07:57:07;13.40;99.90
15072;DHT22;7635;56.696;13.002;2022-10-16T07:59:34;13.40;99.90
15072;DHT22;7635;56.696;13.002;2022-10-16T08:02:01;13.40;99.90
15072;DHT22;7635;56.696;13.002;2022-10-16T08:04:27;13.50;99.90
15072;DHT22;7635;56.696;13.002;2022-10-16T08:06:54;13.50;99.90
15072;DHT22;7635;56.696;13.002;2022-10-16T08:09:21;13.60;99.90
15072;DHT22;7635;56.696;13.002;2022-10-16T08:11:49;13.60;99.90
15072;DHT22;7635;56.696;13.002;2022-10-16T08:14:18;13.60;99.90
15072;DHT22;7635;56.696;13.002;2022-10-16T08:16:44;13.60;99.90
15072;DHT22;7635;56.696;13.002;2022-10-16T08:19:11;13.60;99.90
15072;DHT22;7635;56.696;13.002;2022-10-16T08:21:38;13.60;99.90
15072;DHT22;7635;56.696;13.002;2022-10-16T08:24:05;13.60;99.90
15072;DHT22;7635;56.696;13.002;2022-10-16T08:26:31;13.90;99.90
15072;DHT22;7635;56.696;13.002;2022-10-16T08:29:00;14.40;99.90
15072;DHT22;7635;56.696;13.002;2022-10-16T08:31:26;14.70;99.90
15072;DHT22;7635;56.696;13.002;2022-10-16T08:33:53;14.80;99.90
15072;DHT22;7635;56.696;13.002;2022-10-16T08:36:20;14.80;99.90
15072;DHT22;7635;56.696;13.002;2022-10-16T08:38:50;14.60;99.90
15072;DHT22;7635;56.696;13.002;2022-10-16T08:44:41;14.50;99.90
15072;DHT22;7635;56.696;13.002;2022-10-16T08:47:15;14.40;99.90
15072;DHT22;7635;56.696;13.002;2022-10-16T08:49:55;14.40;99.90
15072;DHT22;7635;56.696;13.002;2022-10-16T08:52:23;14.50;99.90
15072;DHT22;7635;56.696;13.002;2022-10-16T08:54:54;14.50;99.90
15072;DHT22;7635;56.696;13.002;2022-10-16T08:57:23;14.60;99.90
15072;DHT22;7635;56.696;13.002;2022-10-16T08:59:53;14.70;99.90
15072;DHT22;7635;56.696;13.002;2022-10-16T09:02:26;14.60;99.90
15072;DHT22;7635;56.696;13.002;2022-10-16T09:05:07;14.50;99.90
15072;DHT22;7635;56.696;13.002;2022-10-16T09:07:44;14.40;99.90
15072;DHT22;7635;56.696;13.002;2022-10-16T09:10:27;14.30;99.90
15072;DHT22;7635;56.696;13.002;2022-10-16T09:13:02;14.20;99.90
15072;DHT22;7635;56.696;13.002;2022-10-16T09:15:40;14.20;99.90
15072;DHT22;7635;56.696;13.002;2022-10-16T09:18:15;14.10;99.90
15072;DHT22;7635;56.696;13.002;2022-10-16T09:20:50;14.20;99.90
15072;DHT22;7635;56.696;13.002;2022-10-16T09:23:19;14.20;99.90
15072;DHT22;7635;56.696;13.002;2022-10-16T09:25:47;14.20;99.90
15072;DHT22;7635;56.696;13.002;2022-10-16T09:28:16;14.20;99.90
15072;DHT22;7635;56.696;13.002;2022-10-16T09:30:45;14.20;99.90
15072;DHT22;7635;56.696;13.002;2022-10-16T09:33:13;14.20;99.90
15072;DHT22;7635;56.696;13.002;2022-10-16T09:35:43;14.10;99.90
15072;DHT22;7635;56.696;13.002;2022-10-16T09:38:21;14.20;99.90
15072;DHT22;7635;56.696;13.002;2022-10-16T09:40:48;14.40;99.90
15072;DHT22;7635;56.696;13.002;2022-10-16T09:43:21;14.70;99.90
15072;DHT22;7635;56.696;13.002;2022-10-16T09:46:02;14.80;99.90
15072;DHT22;7635;56.696;13.002;2022-10-16T09:48:35;15.10;99.90
15072;DHT22;7635;56.696;13.002;2022-10-16T09:51:04;15.30;99.90
15072;DHT22;7635;56.696;13.002;2022-10-16T09:53:40;15.50;99.90
15072;DHT22;7635;56.696;13.002;2022-10-16T09:56:10;15.60;99.90
15072;DHT22;7635;56.696;13.002;2022-10-16T09:58:42;15.60;99.90
15072;DHT22;7635;56.696;13.002;2022-10-16T10:01:13;15.50;99.90
15072;DHT22;7635;56.696;13.002;2022-10-16T10:03:42;15.40;99.90
15072;DHT22;7635;56.696;13.002;2022-10-16T10:06:17;15.30;99.90
15072;DHT22;7635;56.696;13.002;2022-10-16T10:09:14;15.10;99.90
15072;DHT22;7635;56.696;13.002;2022-10-16T10:11:48;14.90;99.90
15072;DHT22;7635;56.696;13.002;2022-10-16T10:14:24;14.80;99.90
15072;DHT22;7635;56.696;13.002;2022-10-16T10:17:06;14.70;99.90
15072;DHT22;7635;56.696;13.002;2022-10-16T10:19:38;14.60;99.90
15072;DHT22;7635;56.696;13.002;2022-10-16T10:22:17;14.60;99.90
15072;DHT22;7635;56.696;13.002;2022-10-16T10:24:44;14.60;99.90
15072;DHT22;7635;56.696;13.002;2022-10-16T10:27:23;14.50;99.90
15072;DHT22;7635;56.696;13.002;2022-10-16T10:29:58;14.50;99.90
15072;DHT22;7635;56.696;13.002;2022-10-16T10:32:34;14.50;99.90
15072;DHT22;7635;56.696;13.002;2022-10-16T10:35:11;14.50;99.90
15072;DHT22;7635;56.696;13.002;2022-10-16T10:37:52;14.50;99.90
15072;DHT22;7635;56.696;13.002;2022-10-16T10:40:30;14.50;99.90
15072;DHT22;7635;56.696;13.002;2022-10-16T10:43:04;14.60;99.90
15072;DHT22;7635;56.696;13.002;2022-10-16T10:45:41;14.60;99.90
15072;DHT22;7635;56.696;13.002;2022-10-16T10:48:24;14.70;99.90
15072;DHT22;7635;56.696;13.002;2022-10-16T10:50:56;14.90;99.90
15072;DHT22;7635;56.696;13.002;2022-10-16T10:53:32;15.10;99.90
15072;DHT22;7635;56.696;13.002;2022-10-16T10:56:15;15.40;99.90
15072;DHT22;7635;56.696;13.002;2022-10-16T10:59:19;15.60;99.90
15072;DHT22;7635;56.696;13.002;2022-10-16T11:01:55;15.90;99.90
15072;DHT22;7635;56.696;13.002;2022-10-16T11:04:38;16.10;99.90
15072;DHT22;7635;56.696;13.002;2022-10-16T11:07:15;16.30;99.90
15072;DHT22;7635;56.696;13.002;2022-10-16T11:09:45;16.20;99.90
15072;DHT22;7635;56.696;13.002;2022-10-16T11:12:17;16.20;99.90
15072;DHT22;7635;56.696;13.002;2022-10-16T11:14:49;16.10;99.90
15072;DHT22;7635;56.696;13.002;2022-10-16T11:17:24;16.10;99.90
15072;DHT22;7635;56.696;13.002;2022-10-16T11:19:58;16.10;99.90
15072;DHT22;7635;56.696;13.002;2022-10-16T11:22:30;16.10;99.90
15072;DHT22;7635;56.696;13.002;2022-10-16T11:25:02;16.00;99.90
15072;DHT22;7635;56.696;13.002;2022-10-16T11:27:36;16.00;99.90
15072;DHT22;7635;56.696;13.002;2022-10-16T11:30:12;15.90;99.90
15072;DHT22;7635;56.696;13.002;2022-10-16T11:32:53;15.80;99.90
15072;DHT22;7635;56.696;13.002;2022-10-16T11:35:25;15.80;99.90
15072;DHT22;7635;56.696;13.002;2022-10-16T11:37:56;15.70;99.90
15072;DHT22;7635;56.696;13.002;2022-10-16T11:40:28;15.70;99.90
15072;DHT22;7635;56.696;13.002;2022-10-16T11:43:00;15.80;99.90
15072;DHT22;7635;56.696;13.002;2022-10-16T11:45:33;15.90;99.90
15072;DHT22;7635;56.696;13.002;2022-10-16T11:48:07;15.90;99.90
15072;DHT22;7635;56.696;13.002;2022-10-16T11:50:40;16.00;99.90
15072;DHT22;7635;56.696;13.002;2022-10-16T11:53:16;16.00;99.90
15072;DHT22;7635;56.696;13.002;2022-10-16T11:55:46;16.00;99.90
15072;DHT22;7635;56.696;13.002;2022-10-16T11:58:21;16.10;99.90
15072;DHT22;7635;56.696;13.002;2022-10-16T12:00:56;16.10;99.90
15072;DHT22;7635;56.696;13.002;2022-10-16T12:03:29;16.00;99.90
15072;DHT22;7635;56.696;13.002;2022-10-16T12:06:11;16.00;99.90
15072;DHT22;7635;56.696;13.002;2022-10-16T12:08:40;16.00;99.90
15072;DHT22;7635;56.696;13.002;2022-10-16T12:11:09;16.10;99.90
15072;DHT22;7635;56.696;13.002;2022-10-16T12:13:38;16.10;99.90
15072;DHT22;7635;56.696;13.002;2022-10-16T12:16:08;16.00;99.90
15072;DHT22;7635;56.696;13.002;2022-10-16T12:18:47;15.90;99.90
15072;DHT22;7635;56.696;13.002;2022-10-16T12:21:16;15.80;99.90
15072;DHT22;7635;56.696;13.002;2022-10-16T12:23:49;15.70;99.90
15072;DHT22;7635;56.696;13.002;2022-10-16T12:26:24;15.60;99.90
15072;DHT22;7635;56.696;13.002;2022-10-16T12:28:51;15.40;99.90
15072;DHT22;7635;56.696;13.002;2022-10-16T12:31:18;15.40;99.90
15072;DHT22;7635;56.696;13.002;2022-10-16T12:33:56;15.30;99.90
15072;DHT22;7635;56.696;13.002;2022-10-16T12:36:29;15.30;99.90
15072;DHT22;7635;56.696;13.002;2022-10-16T12:38:57;15.30;99.90
15072;DHT22;7635;56.696;13.002;2022-10-16T12:41:26;15.20;99.90
15072;DHT22;7635;56.696;13.002;2022-10-16T12:43:54;15.20;99.90
15072;DHT22;7635;56.696;13.002;2022-10-16T12:46:24;15.20;99.90
15072;DHT22;7635;56.696;13.002;2022-10-16T12:49:14;15.10;99.90
15072;DHT22;7635;56.696;13.002;2022-10-16T12:51:46;15.10;99.90
15072;DHT22;7635;56.696;13.002;2022-10-16T12:54:15;15.10;99.90
15072;DHT22;7635;56.696;13.002;2022-10-16T12:56:54;15.10;99.90
15072;DHT22;7635;56.696;13.002;2022-10-16T12:59:31;15.00;99.90
15072;DHT22;7635;56.696;13.002;2022-10-16T13:02:18;15.00;99.90
15072;DHT22;7635;56.696;13.002;2022-10-16T13:05:01;14.90;99.90
15072;DHT22;7635;56.696;13.002;2022-10-16T13:07:41;14.90;99.90
15072;DHT22;7635;56.696;13.002;2022-10-16T13:10:17;14.80;99.90
15072;DHT22;7635;56.696;13.002;2022-10-16T13:15:53;14.40;99.90
15072;DHT22;7635;56.696;13.002;2022-10-16T13:18:29;14.20;99.90
15072;DHT22;7635;56.696;13.002;2022-10-16T13:21:06;14.00;99.90
15072;DHT22;7635;56.696;13.002;2022-10-16T13:23:40;14.00;99.90
15072;DHT22;7635;56.696;13.002;2022-10-16T13:26:20;13.90;99.90
15072;DHT22;7635;56.696;13.002;2022-10-16T13:28:48;13.90;99.90
15072;DHT22;7635;56.696;13.002;2022-10-16T13:31:19;13.90;99.90
15072;DHT22;7635;56.696;13.002;2022-10-16T13:33:49;13.90;99.90
15072;DHT22;7635;56.696;13.002;2022-10-16T13:36:21;13.90;99.90
15072;DHT22;7635;56.696;13.002;2022-10-16T13:39:00;13.90;99.90
15072;DHT22;7635;56.696;13.002;2022-10-16T13:41:31;13.90;99.90
15072;DHT22;7635;56.696;13.002;2022-10-16T13:43:58;14.00;99.90
15072;DHT22;7635;56.696;13.002;2022-10-16T13:46:25;14.10;99.90
15072;DHT22;7635;56.696;13.002;2022-10-16T13:49:00;14.20;99.90
15072;DHT22;7635;56.696;13.002;2022-10-16T13:51:27;14.20;99.90
15072;DHT22;7635;56.696;13.002;2022-10-16T13:53:57;14.20;99.90
15072;DHT22;7635;56.696;13.002;2022-10-16T13:56:27;14.20;99.90
15072;DHT22;7635;56.696;13.002;2022-10-16T13:59:01;14.20;99.90
15072;DHT22;7635;56.696;13.002;2022-10-16T14:01:30;14.20;99.90
15072;DHT22;7635;56.696;13.002;2022-10-16T14:04:02;14.20;99.90
15072;DHT22;7635;56.696;13.002;2022-10-16T14:06:30;14.10;99.90
15072;DHT22;7635;56.696;13.002;2022-10-16T14:09:00;14.10;99.90
15072;DHT22;7635;56.696;13.002;2022-10-16T14:11:28;14.00;99.90
15072;DHT22;7635;56.696;13.002;2022-10-16T14:13:55;13.90;99.90
15072;DHT22;7635;56.696;13.002;2022-10-16T14:16:23;13.90;99.90
15072;DHT22;7635;56.696;13.002;2022-10-16T14:18:56;13.90;99.90
15072;DHT22;7635;56.696;13.002;2022-10-16T14:21:24;13.90;99.90
15072;DHT22;7635;56.696;13.002;2022-10-16T14:23:52;13.80;99.90
15072;DHT22;7635;56.696;13.002;2022-10-16T14:26:22;13.80;99.90
15072;DHT22;7635;56.696;13.002;2022-10-16T14:29:02;13.80;99.90
15072;DHT22;7635;56.696;13.002;2022-10-16T14:31:31;13.80;99.90
15072;DHT22;7635;56.696;13.002;2022-10-16T14:33:59;13.80;99.90
15072;DHT22;7635;56.696;13.002;2022-10-16T14:36:27;13.80;99.90
15072;DHT22;7635;56.696;13.002;2022-10-16T14:39:00;13.80;99.90
15072;DHT22;7635;56.696;13.002;2022-10-16T14:41:30;13.70;99.90
15072;DHT22;7635;56.696;13.002;2022-10-16T14:44:01;13.70;99.90
15072;DHT22;7635;56.696;13.002;2022-10-16T14:46:32;13.70;99.90
15072;DHT22;7635;56.696;13.002;2022-10-16T14:49:03;13.70;99.90
15072;DHT22;7635;56.696;13.002;2022-10-16T14:51:30;13.70;99.90
15072;DHT22;7635;56.696;13.002;2022-10-16T14:53:57;13.60;99.90
15072;DHT22;7635;56.696;13.002;2022-10-16T14:56:26;13.60;99.90
15072;DHT22;7635;56.696;13.002;2022-10-16T14:58:55;13.60;99.90
15072;DHT22;7635;56.696;13.002;2022-10-16T15:01:22;13.60;99.90
15072;DHT22;7635;56.696;13.002;2022-10-16T15:03:49;13.60;99.90
15072;DHT22;7635;56.696;13.002;2022-10-16T15:06:17;13.60;99.90
15072;DHT22;7635;56.696;13.002;2022-10-16T15:08:44;13.60;99.90
15072;DHT22;7635;56.696;13.002;2022-10-16T15:11:13;13.50;99.90
15072;DHT22;7635;56.696;13.002;2022-10-16T15:13:41;13.50;99.90
15072;DHT22;7635;56.696;13.002;2022-10-16T15:16:11;13.50;99.90
15072;DHT22;7635;56.696;13.002;2022-10-16T15:18:38;13.50;99.90
15072;DHT22;7635;56.696;13.002;2022-10-16T15:21:05;13.50;99.90
15072;DHT22;7635;56.696;13.002;2022-10-16T15:23:32;13.50;99.90
15072;DHT22;7635;56.696;13.002;2022-10-16T15:25:59;13.40;99.90
15072;DHT22;7635;56.696;13.002;2022-10-16T15:28:26;13.40;99.90
15072;DHT22;7635;56.696;13.002;2022-10-16T15:30:54;13.40;99.90
15072;DHT22;7635;56.696;13.002;2022-10-16T15:33:24;13.40;99.90
15072;DHT22;7635;56.696;13.002;2022-10-16T15:35:53;13.40;99.90
15072;DHT22;7635;56.696;13.002;2022-10-16T15:38:22;13.30;99.90
15072;DHT22;7635;56.696;13.002;2022-10-16T15:40:49;13.30;99.90
15072;DHT22;7635;56.696;13.002;2022-10-16T15:43:16;13.30;99.90
15072;DHT22;7635;56.696;13.002;2022-10-16T15:45:44;13.20;99.90
15072;DHT22;7635;56.696;13.002;2022-10-16T15:48:11;13.20;99.90
15072;DHT22;7635;56.696;13.002;2022-10-16T15:50:40;13.20;99.90
15072;DHT22;7635;56.696;13.002;2022-10-16T15:53:08;13.10;99.90
15072;DHT22;7635;56.696;13.002;2022-10-16T15:55:34;13.10;99.90
15072;DHT22;7635;56.696;13.002;2022-10-16T15:58:03;13.10;99.90